Star Herdla — LAVD4 — position and weather

sailwx.info

Track history (hours):
 
Tides and Currents Weather Stations Pressure Air Temp Water Temp Dewpoint Dewpoint Depression Visibility Wind Speed Wind Dir Waves Ship Positions

Star Herdla

Last reported at 2017-Feb-21 19:24 UTC. Time now 2017-Feb-22 13:02 UTC.
Position N 29°44' W 095°17'.

Type: Cargo ship. MMSI: 258954000.

Date/timePositionNaut miles runAvg speedWind from/ knotsBaromVisibWave heightAir tempDewpointWater temp
2017-Feb-21 19:24N 29°44' W 095°17'3 0.1
2017-Feb-20 21:22N 29°44' W 095°14'5 6.0
2017-Feb-20 20:33N 29°44' W 095°08'6 6.1
2017-Feb-20 19:32N 29°43' W 095°01'1010.2
2017-Feb-20 18:33N 29°34' W 094°55'151 3.1
2017-Feb-18 17:33N 27°04' W 094°29'  
2017-Feb-15 00:13N 19°38' W 096°07'913.6
2017-Feb-14 23:33N 19°30' W 096°03'1313.2
2017-Feb-14 22:33N 19°18' W 095°57'9 9.3
2017-Feb-14 21:33N 19°12' W 096°05'3 3.0
2017-Feb-14 20:33N 19°12' W 096°08'0 0.0
2017-Feb-14 19:33N 19°12' W 096°08'0 0.0
2017-Feb-14 18:33N 19°12' W 096°08'0 0.0
2017-Feb-14 17:33N 19°12' W 096°08'0 0.0
2017-Feb-14 16:33N 19°12' W 096°08'0 0.0
2017-Feb-14 15:33N 19°12' W 096°08'0 0.0
2017-Feb-14 14:33N 19°12' W 096°08'0 0.0
2017-Feb-14 13:33N 19°12' W 096°08'0 0.0
2017-Feb-14 12:30N 19°12' W 096°08'0 0.0
2017-Feb-14 11:33N 19°12' W 096°08'0 0.0
2017-Feb-14 10:33N 19°12' W 096°08'0 0.0
2017-Feb-14 09:33N 19°12' W 096°08'0 0.0
2017-Feb-14 08:33N 19°12' W 096°08'0 0.0
2017-Feb-14 07:33N 19°12' W 096°08'0 0.0
2017-Feb-14 06:33N 19°12' W 096°08'0 0.0
2017-Feb-14 05:33N 19°12' W 096°08'0 0.0
2017-Feb-14 04:33N 19°12' W 096°08'0 0.0
2017-Feb-14 03:30N 19°12' W 096°08'0 0.0
2017-Feb-14 02:33N 19°12' W 096°08'0 0.0
2017-Feb-14 01:33N 19°12' W 096°08'0 0.0
2017-Feb-14 00:33N 19°12' W 096°08'0 0.0
2017-Feb-13 23:33N 19°12' W 096°08'0 0.0
2017-Feb-13 22:33N 19°12' W 096°08'0 0.0
2017-Feb-13 21:30N 19°12' W 096°08'0 0.0
2017-Feb-13 20:33N 19°12' W 096°08'0 0.0
2017-Feb-13 19:33N 19°12' W 096°08'0 0.0
2017-Feb-13 18:33N 19°12' W 096°08'0 0.0
2017-Feb-13 17:33N 19°12' W 096°08'0 0.0
2017-Feb-13 16:33N 19°12' W 096°08'0 0.0
2017-Feb-13 15:33N 19°12' W 096°08'0 0.0
2017-Feb-13 14:33N 19°12' W 096°08'0 0.0
2017-Feb-13 13:33N 19°12' W 096°08'0 0.0
2017-Feb-13 12:33N 19°12' W 096°08'0 0.0
2017-Feb-13 11:33N 19°12' W 096°08'0 0.0
2017-Feb-13 10:33N 19°12' W 096°08'0 0.0
2017-Feb-13 09:33N 19°12' W 096°08'0 0.0
2017-Feb-13 08:33N 19°12' W 096°08'0 0.0
2017-Feb-13 07:27N 19°12' W 096°08'0 0.0
2017-Feb-13 06:33N 19°12' W 096°08'0 0.0
2017-Feb-13 05:33N 19°12' W 096°08'0 0.0
2017-Feb-13 04:33N 19°12' W 096°08'0 0.0
2017-Feb-13 03:33N 19°12' W 096°08'0 0.0
2017-Feb-13 02:33N 19°12' W 096°08'0 0.0
2017-Feb-13 01:30N 19°12' W 096°08'0 0.0
2017-Feb-13 00:33N 19°12' W 096°08'0 0.0
2017-Feb-12 23:33N 19°12' W 096°08'0 0.0
2017-Feb-12 22:33N 19°12' W 096°08'0 0.0
2017-Feb-12 21:33N 19°12' W 096°08'0 0.0
2017-Feb-12 20:33N 19°12' W 096°08'0 0.0
2017-Feb-12 19:33N 19°12' W 096°08'0 0.0
2017-Feb-12 18:27N 19°12' W 096°08'0 0.0
2017-Feb-12 17:33N 19°12' W 096°08'0 0.0
2017-Feb-12 16:27N 19°12' W 096°08'0 0.0
2017-Feb-12 15:33N 19°12' W 096°08'0 0.0
2017-Feb-12 14:33N 19°12' W 096°08'0 0.0
2017-Feb-12 13:30N 19°12' W 096°08'0 0.0
2017-Feb-12 12:33N 19°12' W 096°08'0 0.0
2017-Feb-12 11:33N 19°12' W 096°08'0 0.0
2017-Feb-12 10:30N 19°12' W 096°08'0 0.0
2017-Feb-12 09:33N 19°12' W 096°08'0 0.0
2017-Feb-12 08:33N 19°12' W 096°08'0 0.0
2017-Feb-12 07:33N 19°12' W 096°08'0 0.0
2017-Feb-12 06:30N 19°12' W 096°08'0 0.0
2017-Feb-12 05:30N 19°12' W 096°08'0 0.0
2017-Feb-12 04:33N 19°12' W 096°08'0 0.0
2017-Feb-12 03:33N 19°12' W 096°08'0 0.0
2017-Feb-12 02:33N 19°12' W 096°08'0 0.0
2017-Feb-12 01:33N 19°12' W 096°08'0 0.0
2017-Feb-12 00:33N 19°12' W 096°08'0 0.0
2017-Feb-11 23:33N 19°12' W 096°08'0 0.0
2017-Feb-11 22:33N 19°12' W 096°08'0 0.0
2017-Feb-11 21:33N 19°12' W 096°08'0 0.0
2017-Feb-11 20:33N 19°12' W 096°08'4 4.4
2017-Feb-11 19:33N 19°11' W 096°03'  
Track history (hours):
 
Tides and Currents Weather Stations Pressure Air Temp Water Temp Dewpoint Dewpoint Depression Visibility Wind Speed Wind Dir Waves Ship Positions

Star Herdla

Last reported at 2017-Feb-21 19:24 UTC. Time now 2017-Feb-22 13:02 UTC.
Position N 29°44' W 095°17'.

Type: Cargo ship. MMSI: 258954000.

Date/timePositionNaut miles runAvg speedWind from/ knotsBaromVisibWave heightAir tempDewpointWater temp
2017-Feb-21 19:24N 29°44' W 095°17'3 0.1
2017-Feb-20 21:22N 29°44' W 095°14'5 6.0
2017-Feb-20 20:33N 29°44' W 095°08'6 6.1
2017-Feb-20 19:32N 29°43' W 095°01'1010.2
2017-Feb-20 18:33N 29°34' W 094°55'151 3.1
2017-Feb-18 17:33N 27°04' W 094°29'  
2017-Feb-15 00:13N 19°38' W 096°07'913.6
2017-Feb-14 23:33N 19°30' W 096°03'1313.2
2017-Feb-14 22:33N 19°18' W 095°57'9 9.3
2017-Feb-14 21:33N 19°12' W 096°05'3 3.0
2017-Feb-14 20:33N 19°12' W 096°08'0 0.0
2017-Feb-14 19:33N 19°12' W 096°08'0 0.0
2017-Feb-14 18:33N 19°12' W 096°08'0 0.0
2017-Feb-14 17:33N 19°12' W 096°08'0 0.0
2017-Feb-14 16:33N 19°12' W 096°08'0 0.0
2017-Feb-14 15:33N 19°12' W 096°08'0 0.0
2017-Feb-14 14:33N 19°12' W 096°08'0 0.0
2017-Feb-14 13:33N 19°12' W 096°08'0 0.0
2017-Feb-14 12:30N 19°12' W 096°08'0 0.0
2017-Feb-14 11:33N 19°12' W 096°08'0 0.0
2017-Feb-14 10:33N 19°12' W 096°08'0 0.0
2017-Feb-14 09:33N 19°12' W 096°08'0 0.0
2017-Feb-14 08:33N 19°12' W 096°08'0 0.0
2017-Feb-14 07:33N 19°12' W 096°08'0 0.0
2017-Feb-14 06:33N 19°12' W 096°08'0 0.0
2017-Feb-14 05:33N 19°12' W 096°08'0 0.0
2017-Feb-14 04:33N 19°12' W 096°08'0 0.0
2017-Feb-14 03:30N 19°12' W 096°08'0 0.0
2017-Feb-14 02:33N 19°12' W 096°08'0 0.0
2017-Feb-14 01:33N 19°12' W 096°08'0 0.0
2017-Feb-14 00:33N 19°12' W 096°08'0 0.0
2017-Feb-13 23:33N 19°12' W 096°08'0 0.0
2017-Feb-13 22:33N 19°12' W 096°08'0 0.0
2017-Feb-13 21:30N 19°12' W 096°08'0 0.0
2017-Feb-13 20:33N 19°12' W 096°08'0 0.0
2017-Feb-13 19:33N 19°12' W 096°08'0 0.0
2017-Feb-13 18:33N 19°12' W 096°08'0 0.0
2017-Feb-13 17:33N 19°12' W 096°08'0 0.0
2017-Feb-13 16:33N 19°12' W 096°08'0 0.0
2017-Feb-13 15:33N 19°12' W 096°08'0 0.0
2017-Feb-13 14:33N 19°12' W 096°08'0 0.0
2017-Feb-13 13:33N 19°12' W 096°08'0 0.0
2017-Feb-13 12:33N 19°12' W 096°08'0 0.0
2017-Feb-13 11:33N 19°12' W 096°08'0 0.0
2017-Feb-13 10:33N 19°12' W 096°08'0 0.0
2017-Feb-13 09:33N 19°12' W 096°08'0 0.0
2017-Feb-13 08:33N 19°12' W 096°08'0 0.0
2017-Feb-13 07:27N 19°12' W 096°08'0 0.0
2017-Feb-13 06:33N 19°12' W 096°08'0 0.0
2017-Feb-13 05:33N 19°12' W 096°08'0 0.0
2017-Feb-13 04:33N 19°12' W 096°08'0 0.0
2017-Feb-13 03:33N 19°12' W 096°08'0 0.0
2017-Feb-13 02:33N 19°12' W 096°08'0 0.0
2017-Feb-13 01:30N 19°12' W 096°08'0 0.0
2017-Feb-13 00:33N 19°12' W 096°08'0 0.0
2017-Feb-12 23:33N 19°12' W 096°08'0 0.0
2017-Feb-12 22:33N 19°12' W 096°08'0 0.0
2017-Feb-12 21:33N 19°12' W 096°08'0 0.0
2017-Feb-12 20:33N 19°12' W 096°08'0 0.0
2017-Feb-12 19:33N 19°12' W 096°08'0 0.0
2017-Feb-12 18:27N 19°12' W 096°08'0 0.0
2017-Feb-12 17:33N 19°12' W 096°08'0 0.0
2017-Feb-12 16:27N 19°12' W 096°08'0 0.0
2017-Feb-12 15:33N 19°12' W 096°08'0 0.0
2017-Feb-12 14:33N 19°12' W 096°08'0 0.0
2017-Feb-12 13:30N 19°12' W 096°08'0 0.0
2017-Feb-12 12:33N 19°12' W 096°08'0 0.0
2017-Feb-12 11:33N 19°12' W 096°08'0 0.0
2017-Feb-12 10:30N 19°12' W 096°08'0 0.0
2017-Feb-12 09:33N 19°12' W 096°08'0 0.0
2017-Feb-12 08:33N 19°12' W 096°08'0 0.0
2017-Feb-12 07:33N 19°12' W 096°08'0 0.0
2017-Feb-12 06:30N 19°12' W 096°08'0 0.0
2017-Feb-12 05:30N 19°12' W 096°08'0 0.0
2017-Feb-12 04:33N 19°12' W 096°08'0 0.0
2017-Feb-12 03:33N 19°12' W 096°08'0 0.0
2017-Feb-12 02:33N 19°12' W 096°08'0 0.0
2017-Feb-12 01:33N 19°12' W 096°08'0 0.0
2017-Feb-12 00:33N 19°12' W 096°08'0 0.0
2017-Feb-11 23:33N 19°12' W 096°08'0 0.0
2017-Feb-11 22:33N 19°12' W 096°08'0 0.0
2017-Feb-11 21:33N 19°12' W 096°08'0 0.0
2017-Feb-11 20:33N 19°12' W 096°08'4 4.4
2017-Feb-11 19:33N 19°11' W 096°03'  

Dump ship's entire track history